createdAt,value
2023-03-20T00:02:22.123Z,29.35
2023-03-20T00:04:50.120Z,27.75
2023-03-20T00:07:18.458Z,32.85
2023-03-20T00:09:46.400Z,33.95
2023-03-20T00:12:21.032Z,29.15
2023-03-20T00:17:20.692Z,28.45
2023-03-20T00:19:49.189Z,29.02
2023-03-20T00:22:17.884Z,31.82
2023-03-20T00:24:48.763Z,29.52
2023-03-20T00:27:18.273Z,28.95
2023-03-20T00:29:46.315Z,34.88
2023-03-20T00:32:14.993Z,30.70
2023-03-20T00:34:42.685Z,31.25
2023-03-20T00:37:14.173Z,31.10
2023-03-20T00:39:43.730Z,28.52
2023-03-20T00:42:26.066Z,29.15
2023-03-20T00:44:56.152Z,29.27
2023-03-20T00:47:27.412Z,32.30
2023-03-20T00:49:56.293Z,32.13
2023-03-20T00:52:25.414Z,29.55
2023-03-20T00:54:53.726Z,29.30
2023-03-20T00:57:24.981Z,29.65
2023-03-20T01:00:09.627Z,30.20
2023-03-20T01:02:37.608Z,33.05
2023-03-20T01:05:06.433Z,33.30
2023-03-20T01:07:34.477Z,29.77
2023-03-20T01:10:04.590Z,34.08
2023-03-20T01:12:33.078Z,32.65
2023-03-20T01:15:02.409Z,29.63
2023-03-20T01:17:30.542Z,31.70
2023-03-20T01:19:58.416Z,30.52
2023-03-20T01:22:27.468Z,31.37
2023-03-20T01:24:57.118Z,35.08
2023-03-20T01:27:25.550Z,33.50
2023-03-20T01:29:53.254Z,36.05
2023-03-20T01:32:21.258Z,32.20
2023-03-20T01:34:50.448Z,35.03
2023-03-20T01:37:25.025Z,32.55
2023-03-20T01:39:53.835Z,29.37
2023-03-20T01:42:21.562Z,35.55
2023-03-20T01:44:52.213Z,36.58
2023-03-20T01:47:24.002Z,32.10
2023-03-20T01:50:17.054Z,34.53
2023-03-20T01:52:46.690Z,32.90
2023-03-20T01:55:14.624Z,35.75
2023-03-20T01:57:44.904Z,30.57
2023-03-20T02:00:15.830Z,32.45
2023-03-20T02:02:46.880Z,33.18
2023-03-20T02:05:19.799Z,35.28
2023-03-20T02:08:08.194Z,32.88
2023-03-20T02:10:36.747Z,35.75
2023-03-20T02:13:11.435Z,33.18
2023-03-20T02:16:01.153Z,34.90
2023-03-20T02:18:47.744Z,33.73
2023-03-20T02:21:44.224Z,32.80
2023-03-20T02:24:39.284Z,35.85
2023-03-20T02:27:37.894Z,33.35
2023-03-20T02:30:44.476Z,35.25
2023-03-20T02:33:16.522Z,41.77
2023-03-20T02:35:54.254Z,32.65
2023-03-20T02:38:34.580Z,33.00
2023-03-20T02:41:12.640Z,31.40
2023-03-20T02:43:50.076Z,37.53
2023-03-20T02:46:45.835Z,34.58
2023-03-20T02:49:40.518Z,32.20
2023-03-20T02:52:23.886Z,34.05
2023-03-20T02:55:13.178Z,33.60
2023-03-20T02:57:54.103Z,35.45
2023-03-20T03:00:28.746Z,33.25
2023-03-20T03:03:03.310Z,31.50
2023-03-20T03:05:35.275Z,36.25
2023-03-20T03:08:11.326Z,32.05
2023-03-20T03:10:42.873Z,32.38
2023-03-20T03:13:14.496Z,31.95
2023-03-20T03:15:46.511Z,31.42
2023-03-20T03:18:17.907Z,35.80
2023-03-20T03:20:47.330Z,33.48
2023-03-20T03:23:21.807Z,31.57
2023-03-20T03:25:51.843Z,34.33
2023-03-20T03:28:38.990Z,32.25
2023-03-20T03:31:10.543Z,30.15
2023-03-20T03:33:42.853Z,33.02
2023-03-20T03:36:41.786Z,31.62
2023-03-20T03:39:19.176Z,35.70
2023-03-20T03:41:52.154Z,32.88
2023-03-20T03:44:36.003Z,33.15
2023-03-20T03:47:16.671Z,35.90
2023-03-20T03:49:47.894Z,38.55
2023-03-20T03:52:19.694Z,32.15
2023-03-20T03:55:12.297Z,33.73
2023-03-20T03:57:54.379Z,31.00
2023-03-20T04:00:24.484Z,35.78
2023-03-20T04:02:55.595Z,33.53
2023-03-20T04:05:25.671Z,34.05
2023-03-20T04:07:56.058Z,36.77
2023-03-20T04:10:23.865Z,35.23
2023-03-20T04:12:52.102Z,33.88
2023-03-20T04:15:22.621Z,35.10
2023-03-20T04:17:50.360Z,31.23
2023-03-20T04:20:19.807Z,32.90
2023-03-20T04:22:49.461Z,34.10
2023-03-20T04:25:21.941Z,33.48
2023-03-20T04:27:51.245Z,31.50
2023-03-20T04:30:29.728Z,33.67
2023-03-20T04:33:17.801Z,36.50
2023-03-20T04:36:02.125Z,35.30
2023-03-20T04:38:29.865Z,30.85
2023-03-20T04:40:57.775Z,33.13
2023-03-20T04:43:25.464Z,32.98
2023-03-20T04:45:53.300Z,35.85
2023-03-20T04:48:25.190Z,34.95
2023-03-20T04:50:52.821Z,38.10
2023-03-20T04:53:22.347Z,34.45
2023-03-20T04:55:52.222Z,35.80
2023-03-20T04:58:19.908Z,34.43
2023-03-20T05:00:48.069Z,34.00
2023-03-20T05:03:17.236Z,33.88
2023-03-20T05:05:55.874Z,33.15
2023-03-20T05:08:23.777Z,35.70
2023-03-20T05:10:53.691Z,35.45
2023-03-20T05:13:34.956Z,40.40
2023-03-20T05:16:21.169Z,33.40
2023-03-20T05:19:08.923Z,35.00
2023-03-20T05:21:50.352Z,35.70
2023-03-20T05:24:35.161Z,34.73
2023-03-20T05:27:10.504Z,38.17
2023-03-20T05:29:52.321Z,34.95
2023-03-20T05:32:30.643Z,40.78
2023-03-20T05:35:16.038Z,36.98
2023-03-20T05:37:48.459Z,39.33
2023-03-20T05:40:26.637Z,36.00
2023-03-20T05:42:58.829Z,34.73
2023-03-20T05:45:44.289Z,40.60
2023-03-20T05:48:14.304Z,38.00
2023-03-20T05:50:44.581Z,48.10
2023-03-20T05:53:14.688Z,41.70
2023-03-20T05:55:47.845Z,40.65
2023-03-20T05:58:17.330Z,42.35
2023-03-20T06:01:04.675Z,37.10
2023-03-20T06:03:47.173Z,37.93
2023-03-20T06:06:17.945Z,46.28
2023-03-20T06:08:47.688Z,43.17
2023-03-20T06:11:16.429Z,44.08
2023-03-20T06:13:44.728Z,39.85
2023-03-20T06:16:12.582Z,39.00
2023-03-20T06:18:40.803Z,40.85
2023-03-20T06:21:09.722Z,38.05
2023-03-20T06:23:37.778Z,41.60
2023-03-20T06:26:06.358Z,41.60
2023-03-20T06:28:35.903Z,46.02
2023-03-20T06:31:05.631Z,47.43
2023-03-20T06:33:35.534Z,45.20
2023-03-20T06:36:03.979Z,43.68
2023-03-20T06:38:31.987Z,39.78
2023-03-20T06:41:01.966Z,47.98
2023-03-20T06:43:30.060Z,56.55
2023-03-20T06:45:57.950Z,42.08
2023-03-20T06:48:29.995Z,44.67
2023-03-20T06:50:58.271Z,42.98
2023-03-20T06:53:27.848Z,44.67
2023-03-20T06:55:57.545Z,43.48
2023-03-20T06:58:28.544Z,44.98
2023-03-20T07:01:05.786Z,39.83
2023-03-20T07:03:33.911Z,46.75
2023-03-20T07:06:02.301Z,40.55
2023-03-20T07:08:30.867Z,41.05
2023-03-20T07:10:58.912Z,48.08
2023-03-20T07:13:31.307Z,41.10
2023-03-20T07:16:05.157Z,38.60
2023-03-20T07:18:35.243Z,38.40
2023-03-20T07:21:05.821Z,38.08
2023-03-20T07:23:34.847Z,44.75
2023-03-20T07:26:03.724Z,41.40
2023-03-20T07:28:32.125Z,41.65
2023-03-20T07:31:08.008Z,40.65
2023-03-20T07:33:36.251Z,46.42
2023-03-20T07:36:07.121Z,43.33
2023-03-20T07:38:34.894Z,41.10
2023-03-20T07:41:04.429Z,39.38
2023-03-20T07:43:34.539Z,41.88
2023-03-20T07:46:41.260Z,43.63
2023-03-20T07:49:09.201Z,39.80
2023-03-20T07:51:37.150Z,44.70
2023-03-20T07:54:05.127Z,46.95
2023-03-20T07:56:32.618Z,49.67
2023-03-20T07:59:00.548Z,38.70
2023-03-20T08:01:28.600Z,39.10
2023-03-20T08:03:57.011Z,44.77
2023-03-20T08:06:28.797Z,38.13
2023-03-20T08:08:57.132Z,38.92
2023-03-20T08:11:24.756Z,39.10
2023-03-20T08:13:53.891Z,36.80
2023-03-20T08:16:22.043Z,42.27
2023-03-20T08:18:50.952Z,38.90
2023-03-20T08:21:18.738Z,39.80
2023-03-20T08:23:46.370Z,39.03
2023-03-20T08:26:17.637Z,40.95
2023-03-20T08:28:47.927Z,40.65
2023-03-20T08:31:16.750Z,38.70
2023-03-20T08:33:46.266Z,38.13
2023-03-20T08:36:16.074Z,40.83
2023-03-20T08:38:44.145Z,37.33
2023-03-20T08:41:12.349Z,41.77
2023-03-20T08:43:40.006Z,37.60
2023-03-20T08:46:08.572Z,36.88
2023-03-20T08:48:36.914Z,38.65
2023-03-20T08:51:08.302Z,40.05
2023-03-20T08:53:36.317Z,41.15
2023-03-20T08:56:04.150Z,44.67
2023-03-20T08:58:31.670Z,38.23
2023-03-20T09:01:06.190Z,41.98
2023-03-20T09:03:33.969Z,39.78
2023-03-20T09:06:02.069Z,38.28
2023-03-20T09:08:30.021Z,40.05
2023-03-20T09:11:17.720Z,38.73
2023-03-20T09:13:45.900Z,40.75
2023-03-20T09:16:15.134Z,39.05
2023-03-20T09:18:42.864Z,39.25
2023-03-20T09:21:10.820Z,38.73
2023-03-20T09:23:38.338Z,40.20
2023-03-20T09:26:07.388Z,41.25
2023-03-20T09:28:36.099Z,37.45
2023-03-20T09:31:03.901Z,36.90
2023-03-20T09:33:31.943Z,39.40
2023-03-20T09:35:59.874Z,40.17
2023-03-20T09:38:29.164Z,39.98
2023-03-20T09:41:02.333Z,37.98
2023-03-20T09:44:05.466Z,48.92
2023-03-20T09:46:50.034Z,41.05
2023-03-20T09:49:26.651Z,45.28
2023-03-20T09:51:57.254Z,40.20
2023-03-20T09:54:29.090Z,45.58
2023-03-20T09:56:57.822Z,42.03
2023-03-20T09:59:27.852Z,39.92
2023-03-20T10:02:02.707Z,48.08
2023-03-20T10:06:58.593Z,38.98
2023-03-20T10:09:29.238Z,41.92
2023-03-20T10:12:09.293Z,42.15
2023-03-20T10:14:43.887Z,40.98
2023-03-20T10:17:33.779Z,39.83
2023-03-20T10:20:37.244Z,44.45
2023-03-20T10:23:21.038Z,44.60
2023-03-20T10:25:55.318Z,44.20
2023-03-20T10:28:29.689Z,42.88
2023-03-20T10:31:10.441Z,41.60
2023-03-20T10:33:44.888Z,45.03
2023-03-20T10:36:35.621Z,40.20
2023-03-20T10:39:23.697Z,41.55
2023-03-20T10:41:58.180Z,39.88
2023-03-20T10:44:41.303Z,39.85
2023-03-20T10:47:13.042Z,41.02
2023-03-20T10:49:44.858Z,38.42
2023-03-20T10:52:19.507Z,38.85
2023-03-20T10:55:03.726Z,41.68
2023-03-20T10:57:34.533Z,44.60
2023-03-20T11:00:05.979Z,39.70
2023-03-20T11:02:34.037Z,43.63
2023-03-20T11:05:05.642Z,43.23
2023-03-20T11:07:35.855Z,41.50
2023-03-20T11:10:10.884Z,39.85
2023-03-20T11:12:47.642Z,41.58
2023-03-20T11:15:24.354Z,40.78
2023-03-20T11:17:54.861Z,38.95
2023-03-20T11:20:23.083Z,38.33
2023-03-20T11:22:54.883Z,41.88
2023-03-20T11:25:37.130Z,39.80
2023-03-20T11:28:34.659Z,43.20
2023-03-20T11:31:09.798Z,41.40
2023-03-20T11:36:30.135Z,40.90
2023-03-20T11:39:14.699Z,42.67
2023-03-20T11:41:48.750Z,44.58
2023-03-20T11:44:23.802Z,40.65
2023-03-20T11:47:03.824Z,37.67
2023-03-20T11:49:33.895Z,40.98
2023-03-20T11:52:06.683Z,39.33
2023-03-20T11:54:34.845Z,41.28
2023-03-20T11:57:02.871Z,42.10
2023-03-20T11:59:34.366Z,40.70
2023-03-20T12:02:07.352Z,44.73
2023-03-20T12:04:41.265Z,37.05
2023-03-20T12:07:24.727Z,40.20
2023-03-20T12:09:59.734Z,40.67
2023-03-20T12:12:56.853Z,39.75
2023-03-20T12:15:33.662Z,41.37
2023-03-20T12:18:16.057Z,35.80
2023-03-20T12:21:17.489Z,36.28
2023-03-20T12:23:49.065Z,39.35
2023-03-20T12:26:26.582Z,39.20
2023-03-20T12:29:02.676Z,40.30
2023-03-20T12:31:50.847Z,37.08
2023-03-20T12:34:37.581Z,37.53
2023-03-20T12:37:08.668Z,37.05
2023-03-20T12:39:45.993Z,36.65
2023-03-20T12:42:47.019Z,33.78
2023-03-20T12:45:24.747Z,33.85
2023-03-20T12:48:23.604Z,35.83
2023-03-20T12:51:00.691Z,32.70
2023-03-20T12:53:50.177Z,33.10
2023-03-20T12:56:33.619Z,31.02
2023-03-20T12:59:11.094Z,31.23
2023-03-20T13:01:55.295Z,33.30
2023-03-20T13:04:29.960Z,32.17
2023-03-20T13:07:07.413Z,29.60
2023-03-20T13:09:41.355Z,32.98
2023-03-20T13:12:22.876Z,31.25
2023-03-20T13:14:56.655Z,30.08
2023-03-20T13:17:34.412Z,33.48
2023-03-20T13:20:12.048Z,33.23
2023-03-20T13:22:50.774Z,31.65
2023-03-20T13:25:35.653Z,34.80
2023-03-20T13:30:52.671Z,30.20
2023-03-20T13:33:55.813Z,29.77
2023-03-20T13:36:42.685Z,33.23
2023-03-20T13:39:32.184Z,30.85
2023-03-20T13:42:01.876Z,30.65
2023-03-20T13:44:32.440Z,32.17
2023-03-20T13:47:04.078Z,31.52
2023-03-20T13:49:38.481Z,29.67
2023-03-20T13:52:21.526Z,30.60
2023-03-20T13:55:18.708Z,30.25
2023-03-20T13:58:10.858Z,30.32
2023-03-20T14:00:42.181Z,27.77
2023-03-20T14:03:32.594Z,29.37
2023-03-20T14:06:04.056Z,30.30
2023-03-20T14:08:38.843Z,30.65
2023-03-20T14:11:24.057Z,27.93
2023-03-20T14:16:22.265Z,28.27
2023-03-20T14:18:53.142Z,29.95
2023-03-20T14:21:24.484Z,28.47
2023-03-20T14:24:05.354Z,32.30
2023-03-20T14:26:38.856Z,33.83
2023-03-20T14:29:16.616Z,30.02
2023-03-20T14:31:48.566Z,29.37
2023-03-20T14:34:26.895Z,32.08
2023-03-20T14:37:00.863Z,29.82
2023-03-20T14:39:49.247Z,32.33
2023-03-20T14:42:26.985Z,31.70
2023-03-20T14:45:34.500Z,31.33
2023-03-20T14:48:26.303Z,32.60
2023-03-20T14:51:22.659Z,27.82
2023-03-20T14:54:00.830Z,29.23
2023-03-20T14:56:34.349Z,28.67
2023-03-20T14:59:07.762Z,29.20
2023-03-20T15:01:42.306Z,32.13
2023-03-20T15:04:23.370Z,27.90
2023-03-20T15:07:17.073Z,27.67
2023-03-20T15:09:48.120Z,29.40
2023-03-20T15:12:19.594Z,34.83
2023-03-20T15:14:53.949Z,28.12
2023-03-20T15:17:25.166Z,29.02
2023-03-20T15:20:15.776Z,28.70
2023-03-20T15:23:04.972Z,26.20
2023-03-20T15:25:44.570Z,25.90
2023-03-20T15:28:19.782Z,29.18
2023-03-20T15:30:50.504Z,27.50
2023-03-20T15:33:31.218Z,29.15
2023-03-20T15:36:01.417Z,30.80
2023-03-20T15:38:32.962Z,30.10
2023-03-20T15:41:14.281Z,27.35
2023-03-20T15:43:42.413Z,26.40
2023-03-20T15:46:18.944Z,26.68
2023-03-20T15:48:40.438Z,32.42
2023-03-20T15:51:13.548Z,28.38
2023-03-20T15:53:45.148Z,30.17
2023-03-20T15:56:18.769Z,26.97
2023-03-20T15:58:47.255Z,26.90
2023-03-20T16:01:20.614Z,27.65
2023-03-20T16:03:49.127Z,29.10
2023-03-20T16:06:32.142Z,30.08
2023-03-20T16:09:03.398Z,31.45
2023-03-20T16:11:37.324Z,26.62
2023-03-20T16:14:07.296Z,31.95
2023-03-20T16:16:37.428Z,27.50
2023-03-20T16:19:07.383Z,27.98
2023-03-20T16:21:39.782Z,30.37
2023-03-20T16:24:11.529Z,26.00
2023-03-20T16:26:43.301Z,28.90
2023-03-20T16:29:17.541Z,28.17
2023-03-20T16:31:52.259Z,28.45
2023-03-20T16:36:57.305Z,29.30
2023-03-20T16:39:28.524Z,27.93
2023-03-20T16:42:18.689Z,31.68
2023-03-20T16:44:46.396Z,29.75
2023-03-20T16:47:23.861Z,26.62
2023-03-20T16:49:58.233Z,30.92
2023-03-20T16:52:29.477Z,32.50
2023-03-20T16:54:58.751Z,29.42
2023-03-20T16:57:29.494Z,29.80
2023-03-20T17:00:00.990Z,32.67
2023-03-20T17:02:31.832Z,32.28
2023-03-20T17:05:06.715Z,29.25
2023-03-20T17:07:34.733Z,33.70
2023-03-20T17:10:21.744Z,36.50
2023-03-20T17:12:51.788Z,33.55
2023-03-20T17:15:23.322Z,36.88
2023-03-20T17:17:51.288Z,32.17
2023-03-20T17:20:22.400Z,40.05
2023-03-20T17:22:50.612Z,35.45
2023-03-20T17:25:19.151Z,40.88
2023-03-20T17:27:47.638Z,34.13
2023-03-20T17:30:22.995Z,37.13
2023-03-20T17:32:51.331Z,35.98
2023-03-20T17:35:19.129Z,42.78
2023-03-20T17:37:47.022Z,35.98
2023-03-20T17:40:20.817Z,35.40
2023-03-20T17:42:49.148Z,36.33
2023-03-20T17:45:20.445Z,39.50
2023-03-20T17:47:47.712Z,36.45
2023-03-20T17:50:27.925Z,39.78
2023-03-20T17:52:55.820Z,37.78
2023-03-20T17:55:23.884Z,37.98
2023-03-20T17:57:51.464Z,41.53
2023-03-20T18:00:24.670Z,44.53
2023-03-20T18:02:52.625Z,42.30
2023-03-20T18:05:20.196Z,45.98
2023-03-20T18:07:48.260Z,48.70
2023-03-20T18:10:19.875Z,43.50
2023-03-20T18:12:47.570Z,50.80
2023-03-20T18:15:15.422Z,47.50
2023-03-20T18:17:43.414Z,42.90
2023-03-20T18:20:14.776Z,44.85
2023-03-20T18:22:42.588Z,43.55
2023-03-20T18:25:10.797Z,40.05
2023-03-20T18:27:39.630Z,46.55
2023-03-20T18:30:14.367Z,48.68
2023-03-20T18:32:42.203Z,44.98
2023-03-20T18:35:10.449Z,47.70
2023-03-20T18:37:39.750Z,41.42
2023-03-20T18:40:14.427Z,42.10
2023-03-20T18:42:42.259Z,40.30
2023-03-20T18:45:11.109Z,46.23
2023-03-20T18:47:39.016Z,42.27
2023-03-20T18:50:25.615Z,40.15
2023-03-20T18:52:54.775Z,42.00
2023-03-20T18:55:23.822Z,41.63
2023-03-20T18:57:51.750Z,40.78
2023-03-20T19:00:29.062Z,57.05
2023-03-20T19:02:57.655Z,44.70
2023-03-20T19:05:28.740Z,44.10
2023-03-20T19:08:00.208Z,42.08
2023-03-20T19:10:36.112Z,46.00
2023-03-20T19:13:07.687Z,42.90
2023-03-20T19:15:37.662Z,43.20
2023-03-20T19:18:07.779Z,38.75
2023-03-20T19:20:42.896Z,45.78
2023-03-20T19:23:15.579Z,41.90
2023-03-20T19:25:45.619Z,40.95
2023-03-20T19:28:37.750Z,46.70
2023-03-20T19:30:56.918Z,42.45
2023-03-20T19:33:24.950Z,44.00
2023-03-20T19:36:03.372Z,43.13
2023-03-20T19:38:23.960Z,46.33
2023-03-20T19:40:55.573Z,44.38
2023-03-20T19:43:23.891Z,41.75
2023-03-20T19:45:58.407Z,51.92
2023-03-20T19:48:46.054Z,47.48
2023-03-20T19:51:00.721Z,44.75
2023-03-20T19:53:29.888Z,46.40
2023-03-20T19:55:58.631Z,46.50
2023-03-20T19:58:26.258Z,45.83
2023-03-20T20:00:57.734Z,48.15
2023-03-20T20:03:25.772Z,50.50
2023-03-20T20:05:54.339Z,47.88
2023-03-20T20:08:43.950Z,47.75
2023-03-20T20:11:01.486Z,50.95
2023-03-20T20:13:32.670Z,47.48
2023-03-20T20:16:01.059Z,47.90
2023-03-20T20:18:30.876Z,47.20
2023-03-20T20:22:00.002Z,52.48
2023-03-20T20:23:32.226Z,47.45
2023-03-20T20:26:00.592Z,48.63
2023-03-20T20:28:28.121Z,50.10
2023-03-20T20:30:58.739Z,51.05
2023-03-20T20:33:28.895Z,51.75
2023-03-20T20:36:45.952Z,45.45
2023-03-20T20:38:49.594Z,50.75
2023-03-20T20:41:02.097Z,48.25
2023-03-20T20:44:14.218Z,52.73
2023-03-20T20:46:09.845Z,48.28
2023-03-20T20:48:39.030Z,43.98
2023-03-20T20:51:07.701Z,49.77
2023-03-20T20:53:36.938Z,52.05
2023-03-20T20:56:05.594Z,55.30
2023-03-20T20:58:34.266Z,56.75
2023-03-20T21:01:03.646Z,52.60
2023-03-20T21:03:32.273Z,49.75
2023-03-20T21:06:05.378Z,46.77
2023-03-20T21:08:35.748Z,52.05
2023-03-20T21:11:03.402Z,48.65
2023-03-20T21:13:32.019Z,51.55
2023-03-20T21:16:00.664Z,53.52
2023-03-20T21:18:48.295Z,51.33
2023-03-20T21:21:16.574Z,52.53
2023-03-20T21:23:48.714Z,47.95
2023-03-20T21:26:16.942Z,50.65
2023-03-20T21:28:45.435Z,54.93
2023-03-20T21:31:25.150Z,55.98
2023-03-20T21:33:48.032Z,55.48
2023-03-20T21:36:16.604Z,55.28
2023-03-20T21:41:13.883Z,49.58
2023-03-20T21:43:43.054Z,52.83
2023-03-20T21:46:58.726Z,50.38
2023-03-20T21:49:29.978Z,49.08
2023-03-20T21:52:24.604Z,47.43
2023-03-20T21:54:51.213Z,48.10
2023-03-20T21:57:09.500Z,51.63
2023-03-20T21:59:38.703Z,47.35
2023-03-20T22:01:58.718Z,48.40
2023-03-20T22:09:45.533Z,46.63
2023-03-20T22:12:09.609Z,49.88
2023-03-20T22:22:04.201Z,42.93
2023-03-20T22:24:52.462Z,52.05
2023-03-20T22:29:47.023Z,43.80
2023-03-20T22:34:39.486Z,46.75
2023-03-20T22:39:31.556Z,45.08
2023-03-20T22:46:44.945Z,49.15
2023-03-20T22:49:02.254Z,43.08
2023-03-20T22:51:36.924Z,43.30
2023-03-20T22:54:01.545Z,41.10
2023-03-20T22:56:30.176Z,45.10
2023-03-20T22:58:58.183Z,41.05
2023-03-20T23:01:27.211Z,38.95
2023-03-20T23:03:54.957Z,38.73
2023-03-20T23:06:25.809Z,38.40
2023-03-20T23:08:58.439Z,39.33
2023-03-20T23:11:27.318Z,37.08
2023-03-20T23:13:55.367Z,36.95
2023-03-20T23:16:23.144Z,34.78
2023-03-20T23:18:51.406Z,36.28
2023-03-20T23:21:46.377Z,37.40
2023-03-20T23:24:14.821Z,35.98
2023-03-20T23:26:42.880Z,35.35
2023-03-20T23:29:11.146Z,36.98
2023-03-20T23:31:38.955Z,39.98
2023-03-20T23:34:06.975Z,36.15
2023-03-20T23:36:38.033Z,39.53
2023-03-20T23:39:11.982Z,36.77
2023-03-20T23:42:06.130Z,40.67
2023-03-20T23:44:11.234Z,39.63
2023-03-20T23:46:40.199Z,38.53
2023-03-20T23:49:08.296Z,39.45
2023-03-20T23:51:36.371Z,36.90
2023-03-20T23:54:05.366Z,40.65
2023-03-20T23:56:52.943Z,44.25
2023-03-20T23:59:22.621Z,35.80
